Wood Heights, Missouri
Current Conditions -  °F | °C
As of 1:15 AM on Thursday 18 Dec 2014 (Local Time) from KGPH Reporting Station
Moderate Snow Moderate Snow  
Wind Chill: 30°   Ceiling: NA
Heat Index: 30°   Visibility: 0.5mi
Dew Point: 28°   Wind: 0mph
Humidity: 93%   Direction: NA
Pressure: 30.26"   Gusts: NA
Location:  39.3039°N, 94.2206°W
Report Text: KGPH 180715Z AUTO 00000KT 1/2SM SN M01/M02 A3026 RMK AO2
Loading
Personal Weather Stations






























Interactive Weather Map New forecast layout! Learn more

10-Day Weather Forecast

Advertisements
Track Severe Weather on mobile